createdAt,value
2018-09-18T00:00:28.742Z,18.39
2018-09-18T00:03:04.062Z,18.39
2018-09-18T00:05:32.579Z,18.38
2018-09-18T00:08:01.035Z,18.26
2018-09-18T00:10:29.610Z,18.27
2018-09-18T00:12:58.005Z,18.31
2018-09-18T00:15:26.812Z,18.25
2018-09-18T00:17:55.341Z,18.24
2018-09-18T00:20:23.806Z,18.27
2018-09-18T00:22:52.272Z,18.31
2018-09-18T00:25:20.766Z,18.31
2018-09-18T00:27:49.140Z,18.35
2018-09-18T00:30:17.617Z,18.20
2018-09-18T00:32:46.242Z,18.10
2018-09-18T00:35:14.885Z,18.05
2018-09-18T00:37:43.356Z,18.10
2018-09-18T00:40:11.822Z,18.09
2018-09-18T00:42:40.332Z,18.06
2018-09-18T00:45:08.818Z,18.08
2018-09-18T00:47:37.305Z,17.84
2018-09-18T00:50:06.330Z,17.76
2018-09-18T00:52:34.968Z,17.83
2018-09-18T00:55:03.321Z,17.78
2018-09-18T00:57:31.938Z,17.78
2018-09-18T01:00:00.394Z,17.81
2018-09-18T01:02:29.036Z,17.90
2018-09-18T01:04:57.411Z,17.85
2018-09-18T01:07:25.984Z,17.84
2018-09-18T01:09:54.769Z,17.72
2018-09-18T01:12:23.235Z,17.68
2018-09-18T01:14:51.692Z,17.69
2018-09-18T01:17:20.316Z,17.69
2018-09-18T01:19:48.893Z,17.59
2018-09-18T01:22:17.403Z,17.58
2018-09-18T01:24:45.964Z,17.56
2018-09-18T01:27:14.388Z,17.48
2018-09-18T01:29:43.063Z,17.36
2018-09-18T01:32:11.556Z,17.44
2018-09-18T01:34:40.108Z,17.38
2018-09-18T01:37:15.354Z,17.36
2018-09-18T01:39:43.836Z,17.42
2018-09-18T01:42:12.336Z,17.39
2018-09-18T01:44:40.777Z,17.45
2018-09-18T01:47:09.221Z,17.39
2018-09-18T01:49:37.669Z,17.28
2018-09-18T01:52:06.463Z,17.26
2018-09-18T01:54:35.055Z,17.28
2018-09-18T01:57:03.543Z,17.28
2018-09-18T01:59:31.823Z,17.10
2018-09-18T02:02:00.267Z,17.19
2018-09-18T02:04:28.660Z,17.14
2018-09-18T02:06:57.084Z,17.10
2018-09-18T02:09:25.504Z,16.94
2018-09-18T02:11:53.989Z,16.99
2018-09-18T02:14:22.461Z,16.96
2018-09-18T02:16:50.930Z,17.03
2018-09-18T02:19:19.442Z,17.00
2018-09-18T02:21:47.894Z,16.88
2018-09-18T02:24:16.396Z,16.88
2018-09-18T02:26:44.915Z,16.86
2018-09-18T02:29:13.374Z,16.88
2018-09-18T02:34:25.874Z,16.77
2018-09-18T02:36:54.285Z,16.89
2018-09-18T02:39:22.702Z,16.79
2018-09-18T02:41:51.233Z,16.80
2018-09-18T02:44:19.840Z,16.83
2018-09-18T02:46:50.619Z,16.78
2018-09-18T02:49:19.098Z,16.81
2018-09-18T02:51:47.733Z,16.74
2018-09-18T02:54:16.202Z,16.82
2018-09-18T02:56:44.693Z,16.77
2018-09-18T02:59:13.104Z,16.60
2018-09-18T03:01:41.508Z,16.61
2018-09-18T03:04:09.986Z,16.74
2018-09-18T03:06:38.547Z,16.73
2018-09-18T03:09:08.560Z,16.64
2018-09-18T03:11:37.116Z,16.63
2018-09-18T03:14:10.143Z,16.51
2018-09-18T03:16:38.692Z,16.57
2018-09-18T03:19:07.074Z,16.53
2018-09-18T03:21:35.450Z,16.50
2018-09-18T03:24:04.066Z,16.51
2018-09-18T03:26:41.379Z,16.56
2018-09-18T03:29:16.797Z,16.53
2018-09-18T03:31:54.713Z,16.50
2018-09-18T03:34:34.020Z,16.51
2018-09-18T03:37:22.502Z,16.53
2018-09-18T03:40:04.142Z,16.44
2018-09-18T03:42:48.037Z,16.47
2018-09-18T03:45:25.658Z,16.50
2018-09-18T03:48:01.129Z,16.37
2018-09-18T03:50:29.490Z,16.41
2018-09-18T03:52:57.888Z,16.42
2018-09-18T03:55:26.228Z,16.36
2018-09-18T03:57:54.653Z,16.44
2018-09-18T04:00:29.721Z,16.44
2018-09-18T04:02:59.091Z,16.45
2018-09-18T04:05:27.514Z,16.44
2018-09-18T04:07:55.930Z,16.43
2018-09-18T04:10:30.774Z,16.44
2018-09-18T04:12:59.177Z,16.40
2018-09-18T04:15:34.204Z,16.46
2018-09-18T04:18:02.610Z,16.42
2018-09-18T04:20:31.015Z,16.53
2018-09-18T04:22:59.443Z,16.45
2018-09-18T04:25:27.919Z,16.40
2018-09-18T04:27:56.309Z,16.36
2018-09-18T04:30:24.675Z,16.22
2018-09-18T04:32:53.195Z,16.28
2018-09-18T04:35:21.669Z,16.28
2018-09-18T04:37:50.094Z,16.24
2018-09-18T04:40:18.561Z,16.27
2018-09-18T04:42:47.156Z,16.23
2018-09-18T04:45:15.883Z,16.26
2018-09-18T04:47:44.425Z,16.18
2018-09-18T04:50:12.900Z,16.25
2018-09-18T04:52:41.756Z,16.24
2018-09-18T04:55:10.147Z,16.16
2018-09-18T04:57:38.687Z,16.06
2018-09-18T05:00:08.150Z,16.09
2018-09-18T05:02:36.721Z,16.07
2018-09-18T05:05:10.696Z,16.13
2018-09-18T05:07:40.056Z,16.06
2018-09-18T05:10:14.621Z,16.04
2018-09-18T05:12:48.420Z,15.99
2018-09-18T05:15:23.427Z,16.03
2018-09-18T05:20:48.315Z,16.00
2018-09-18T05:23:19.372Z,16.06
2018-09-18T05:41:03.845Z,16.08
2018-09-18T05:43:40.322Z,16.06
2018-09-18T05:46:26.155Z,16.06
2018-09-18T05:48:55.838Z,16.19
2018-09-18T05:55:03.689Z,16.30
2018-09-18T06:01:27.025Z,16.25
2018-09-18T06:04:17.055Z,16.28
2018-09-18T06:07:24.919Z,16.29
2018-09-18T06:10:06.668Z,16.34
2018-09-18T06:12:58.397Z,16.35
2018-09-18T06:19:16.905Z,16.41
2018-09-18T06:22:46.057Z,16.42
2018-09-18T06:34:53.647Z,16.56
2018-09-18T06:37:46.379Z,16.61
2018-09-18T06:40:27.149Z,16.69
2018-09-18T06:45:47.794Z,16.83
2018-09-18T06:51:05.375Z,17.17
2018-09-18T06:53:42.120Z,17.31
2018-09-18T06:56:41.694Z,17.44
2018-09-18T07:15:40.859Z,18.03
2018-09-18T07:21:20.014Z,18.30
2018-09-18T07:23:59.953Z,18.45
2018-09-18T07:26:35.312Z,18.61
2018-09-18T07:29:12.732Z,18.70
2018-09-18T07:31:44.468Z,18.75
2018-09-18T07:34:28.035Z,18.74
2018-09-18T07:38:35.255Z,18.77
2018-09-18T09:28:50.146Z,23.28
2018-09-18T09:31:44.905Z,23.40
2018-09-18T09:59:19.947Z,24.49
2018-09-18T10:02:05.237Z,24.56
2018-09-18T10:08:24.810Z,24.99
2018-09-18T12:05:45.849Z,30.17
2018-09-18T12:08:14.705Z,30.12
2018-09-18T12:10:44.152Z,30.04
2018-09-18T12:13:16.577Z,30.16
2018-09-18T12:15:45.578Z,30.27
2018-09-18T12:18:16.444Z,30.30
2018-09-18T12:20:45.468Z,30.23
2018-09-18T12:23:17.300Z,30.04
2018-09-18T12:25:47.366Z,30.26
2018-09-18T12:28:19.147Z,30.44
2018-09-18T12:30:51.787Z,30.51
2018-09-18T12:33:22.984Z,30.48
2018-09-18T12:35:54.213Z,30.43
2018-09-18T12:38:26.272Z,30.63
2018-09-18T12:40:56.703Z,30.81
2018-09-18T12:43:29.403Z,30.80
2018-09-18T12:48:59.444Z,30.64
2018-09-18T12:51:27.895Z,30.66
2018-09-18T12:53:56.237Z,30.78
2018-09-18T12:56:24.638Z,30.73
2018-09-18T12:58:53.101Z,30.68
2018-09-18T13:01:21.674Z,30.62
2018-09-18T13:03:50.553Z,30.51
2018-09-18T13:06:19.264Z,30.41
2018-09-18T13:08:47.601Z,30.31
2018-09-18T13:11:16.070Z,30.22
2018-09-18T13:13:44.545Z,30.06
2018-09-18T13:16:19.584Z,30.07
2018-09-18T13:18:48.302Z,29.95
2018-09-18T13:21:16.807Z,30.00
2018-09-18T13:23:46.026Z,29.91
2018-09-18T13:26:14.556Z,29.82
2018-09-18T13:28:43.034Z,29.78
2018-09-18T13:31:11.688Z,29.77
2018-09-18T13:33:40.299Z,29.66
2018-09-18T13:36:08.753Z,29.70
2018-09-18T13:38:37.130Z,29.70
2018-09-18T13:41:05.559Z,29.71
2018-09-18T13:43:33.950Z,29.65
2018-09-18T13:46:02.449Z,29.64
2018-09-18T13:48:31.127Z,29.71
2018-09-18T13:51:00.471Z,29.74
2018-09-18T13:53:29.621Z,29.74
2018-09-18T13:55:58.364Z,29.76
2018-09-18T13:58:26.904Z,29.79
2018-09-18T14:00:55.751Z,29.79
2018-09-18T14:03:24.291Z,29.68
2018-09-18T14:05:52.737Z,29.73
2018-09-18T14:08:21.332Z,29.77
2018-09-18T14:10:49.790Z,29.82
2018-09-18T14:13:18.241Z,29.75
2018-09-18T14:15:46.686Z,29.78
2018-09-18T14:18:15.867Z,29.78
2018-09-18T14:51:02.902Z,30.18
2018-09-18T15:02:37.674Z,30.26
2018-09-18T15:05:11.698Z,30.21
2018-09-18T16:14:36.177Z,29.88
2018-09-18T16:17:04.739Z,29.88
2018-09-18T16:19:45.481Z,30.03
2018-09-18T16:22:22.897Z,29.96
2018-09-18T16:25:04.171Z,30.08
2018-09-18T16:27:40.157Z,30.02
2018-09-18T16:30:13.508Z,30.04
2018-09-18T16:48:51.472Z,29.75
2018-09-18T16:55:02.477Z,29.73
2018-09-18T16:58:11.393Z,29.72
2018-09-18T17:00:52.344Z,29.78
2018-09-18T17:03:31.687Z,29.81
2018-09-18T17:06:11.083Z,29.78
2018-09-18T17:08:41.940Z,29.74
2018-09-18T17:11:12.325Z,29.65
2018-09-18T17:13:48.941Z,29.58
2018-09-18T17:16:28.931Z,29.51
2018-09-18T17:19:24.920Z,29.41
2018-09-18T17:24:40.070Z,29.13
2018-09-18T17:27:13.832Z,28.94
2018-09-18T17:29:44.114Z,28.69
2018-09-18T17:32:12.662Z,28.58
2018-09-18T17:34:41.533Z,28.21
2018-09-18T17:37:10.573Z,28.13
2018-09-18T17:39:39.267Z,27.98
2018-09-18T17:42:07.891Z,27.75
2018-09-18T17:44:36.514Z,27.53
2018-09-18T17:47:05.028Z,27.38
2018-09-18T17:49:35.311Z,27.19
2018-09-18T17:52:11.411Z,27.24
2018-09-18T17:54:41.192Z,27.10
2018-09-18T17:57:15.329Z,27.03
2018-09-18T18:00:18.592Z,26.86
2018-09-18T18:02:47.271Z,26.63
2018-09-18T18:05:21.476Z,26.59
2018-09-18T18:07:50.950Z,26.39
2018-09-18T18:10:20.677Z,26.41
2018-09-18T18:12:50.195Z,26.37
2018-09-18T18:15:20.319Z,26.15
2018-09-18T18:17:49.670Z,26.04
2018-09-18T18:20:18.362Z,25.92
2018-09-18T18:22:46.986Z,25.61
2018-09-18T18:25:15.537Z,25.63
2018-09-18T18:27:45.135Z,25.52
2018-09-18T18:33:14.830Z,25.42
2018-09-18T18:35:45.214Z,25.45
2018-09-18T18:38:17.223Z,25.42
2018-09-18T18:41:01.287Z,25.39
2018-09-18T18:43:33.528Z,25.32
2018-09-18T18:46:06.646Z,25.20
2018-09-18T18:48:39.048Z,25.08
2018-09-18T18:51:12.466Z,24.94
2018-09-18T18:53:44.316Z,24.88
2018-09-18T18:56:13.039Z,24.85
2018-09-18T18:58:42.103Z,24.84
2018-09-18T19:01:10.879Z,24.85
2018-09-18T19:03:46.293Z,24.75
2018-09-18T19:06:15.217Z,24.73
2018-09-18T19:08:44.059Z,24.75
2018-09-18T19:11:13.501Z,24.75
2018-09-18T19:13:49.048Z,24.64
2018-09-18T19:16:18.008Z,24.68
2018-09-18T19:18:47.117Z,24.54
2018-09-18T19:21:16.088Z,24.55
2018-09-18T19:23:44.855Z,24.57
2018-09-18T19:26:18.837Z,24.44
2018-09-18T19:28:47.585Z,24.46
2018-09-18T19:31:23.393Z,24.47
2018-09-18T19:33:52.537Z,24.43
2018-09-18T19:36:21.323Z,24.32
2018-09-18T19:39:16.833Z,24.27
2018-09-18T19:41:48.095Z,24.23
2018-09-18T19:44:18.178Z,24.20
2018-09-18T19:46:49.093Z,24.17
2018-09-18T19:49:18.375Z,24.02
2018-09-18T19:51:47.146Z,24.05
2018-09-18T19:54:16.722Z,24.01
2018-09-18T19:56:46.266Z,24.00
2018-09-18T19:59:18.353Z,23.99
2018-09-18T20:01:53.207Z,23.88
2018-09-18T20:04:23.150Z,23.91
2018-09-18T20:06:53.128Z,23.89
2018-09-18T20:09:22.980Z,23.80
2018-09-18T20:11:54.104Z,23.85
2018-09-18T20:14:33.797Z,23.88
2018-09-18T20:17:08.244Z,23.78
2018-09-18T20:19:38.972Z,23.83
2018-09-18T20:22:09.828Z,23.80
2018-09-18T20:24:40.568Z,23.84
2018-09-18T20:27:09.761Z,23.85
2018-09-18T20:29:38.552Z,23.67
2018-09-18T20:32:07.964Z,23.72
2018-09-18T20:34:37.932Z,23.71
2018-09-18T20:37:07.200Z,23.70
2018-09-18T20:39:43.307Z,23.66
2018-09-18T20:42:37.672Z,23.63
2018-09-18T20:45:12.556Z,23.64
2018-09-18T20:47:42.349Z,23.67
2018-09-18T20:50:18.338Z,23.54
2018-09-18T20:52:56.143Z,23.54
2018-09-18T20:55:44.415Z,23.37
2018-09-18T21:00:58.635Z,23.35
2018-09-18T21:03:28.429Z,23.41
2018-09-18T21:05:59.519Z,23.46
2018-09-18T21:08:28.554Z,23.37
2018-09-18T21:10:58.892Z,23.36
2018-09-18T21:13:29.894Z,23.29
2018-09-18T21:15:59.198Z,23.34
2018-09-18T21:18:28.459Z,23.20
2018-09-18T21:21:01.140Z,23.08
2018-09-18T21:23:31.894Z,23.09
2018-09-18T21:26:06.288Z,23.16
2018-09-18T21:29:42.025Z,23.17
2018-09-18T21:32:11.544Z,23.20
2018-09-18T21:34:52.412Z,23.21
2018-09-18T21:37:27.938Z,23.16
2018-09-18T21:39:58.390Z,23.08
2018-09-18T21:42:27.068Z,23.10
2018-09-18T21:44:55.549Z,23.09
2018-09-18T21:47:24.344Z,23.02
2018-09-18T21:49:52.866Z,22.97
2018-09-18T21:52:21.498Z,22.89
2018-09-18T21:54:49.943Z,22.83
2018-09-18T21:57:20.096Z,22.88
2018-09-18T21:59:49.389Z,22.90
2018-09-18T22:02:18.252Z,22.85
2018-09-18T22:04:46.748Z,22.85
2018-09-18T22:07:15.466Z,22.79
2018-09-18T22:09:44.028Z,22.71
2018-09-18T22:12:12.908Z,22.68
2018-09-18T22:14:43.265Z,22.70
2018-09-18T22:17:11.852Z,22.76
2018-09-18T22:19:40.756Z,22.78
2018-09-18T22:22:09.366Z,22.70
2018-09-18T22:24:37.825Z,22.65
2018-09-18T22:27:06.472Z,22.60
2018-09-18T22:29:35.165Z,22.50
2018-09-18T22:32:05.345Z,22.40
2018-09-18T22:34:33.930Z,22.41
2018-09-18T22:37:03.653Z,22.43
2018-09-18T22:39:39.233Z,22.35
2018-09-18T22:42:08.771Z,22.24
2018-09-18T22:44:37.490Z,22.23
2018-09-18T22:47:06.386Z,22.17
2018-09-18T22:49:36.973Z,22.09
2018-09-18T22:52:12.191Z,21.90
2018-09-18T22:54:40.908Z,21.85
2018-09-18T22:57:09.432Z,21.92
2018-09-18T22:59:38.065Z,21.98
2018-09-18T23:02:06.600Z,21.99
2018-09-18T23:04:35.083Z,22.02
2018-09-18T23:07:03.487Z,21.90
2018-09-18T23:09:31.909Z,21.81
2018-09-18T23:12:00.335Z,21.80
2018-09-18T23:14:29.197Z,21.76
2018-09-18T23:16:57.723Z,21.73
2018-09-18T23:19:26.698Z,21.67
2018-09-18T23:21:55.232Z,21.69
2018-09-18T23:24:23.615Z,21.60
2018-09-18T23:26:52.035Z,21.56
2018-09-18T23:29:20.827Z,21.61
2018-09-18T23:31:49.206Z,21.63
2018-09-18T23:34:24.438Z,21.55
2018-09-18T23:36:52.825Z,21.45
2018-09-18T23:39:21.218Z,21.39
2018-09-18T23:41:50.048Z,21.34
2018-09-18T23:44:18.442Z,21.35
2018-09-18T23:46:46.811Z,21.31
2018-09-18T23:49:18.080Z,21.28
2018-09-18T23:51:46.559Z,21.19
2018-09-18T23:54:15.378Z,21.22
2018-09-18T23:56:44.065Z,21.38
2018-09-18T23:59:13.421Z,21.36
